createdAt,value
2023-05-20T00:00:24.154Z,102927.23
2023-05-20T00:01:46.899Z,102926.54
2023-05-20T00:02:49.697Z,102927.81
2023-05-20T00:03:52.887Z,102922.35
2023-05-20T00:04:55.882Z,102922.08
2023-05-20T00:05:58.657Z,102922.78
2023-05-20T00:07:01.437Z,102919.89
2023-05-20T00:08:07.354Z,102922.68
2023-05-20T00:09:10.911Z,102919.83
2023-05-20T00:10:13.804Z,102915.54
2023-05-20T00:11:16.616Z,102915.09
2023-05-20T00:12:19.405Z,102915.49
2023-05-20T00:13:22.445Z,102914.42
2023-05-20T00:14:25.409Z,102914.33
2023-05-20T00:15:28.280Z,102911.25
2023-05-20T00:16:31.033Z,102914.98
2023-05-20T00:17:33.840Z,102915.86
2023-05-20T00:18:36.565Z,102915.16
2023-05-20T00:19:39.523Z,102914.13
2023-05-20T00:20:42.240Z,102913.38
2023-05-20T00:21:45.005Z,102915.33
2023-05-20T00:22:47.733Z,102912.61
2023-05-20T00:23:50.842Z,102915.20
2023-05-20T00:24:53.919Z,102912.61
2023-05-20T00:25:58.451Z,102912.95
2023-05-20T00:27:03.485Z,102911.85
2023-05-20T00:28:06.606Z,102915.63
2023-05-20T00:29:10.337Z,102915.13
2023-05-20T00:30:13.391Z,102914.66
2023-05-20T00:31:16.125Z,102915.38
2023-05-20T00:32:18.923Z,102915.94
2023-05-20T00:33:21.651Z,102913.44
2023-05-20T00:34:24.509Z,102915.38
2023-05-20T00:35:27.447Z,102912.08
2023-05-20T00:36:31.325Z,102914.39
2023-05-20T00:37:34.085Z,102913.17
2023-05-20T00:38:36.844Z,102910.23
2023-05-20T00:39:39.688Z,102910.38
2023-05-20T00:40:42.520Z,102915.67
2023-05-20T00:41:45.380Z,102913.08
2023-05-20T00:42:48.050Z,102915.23
2023-05-20T00:43:54.772Z,102913.05
2023-05-20T00:44:58.082Z,102912.38
2023-05-20T00:46:01.868Z,102913.95
2023-05-20T00:47:04.735Z,102908.25
2023-05-20T00:48:07.988Z,102907.39
2023-05-20T00:49:10.935Z,102906.91
2023-05-20T00:50:13.949Z,102906.17
2023-05-20T00:51:17.045Z,102902.71
2023-05-20T00:52:19.827Z,102902.18
2023-05-20T00:53:22.951Z,102904.33
2023-05-20T00:54:25.868Z,102905.30
2023-05-20T00:55:28.857Z,102904.66
2023-05-20T00:56:31.835Z,102910.60
2023-05-20T00:57:34.646Z,102910.61
2023-05-20T00:58:38.093Z,102913.29
2023-05-20T00:59:42.869Z,102912.72
2023-05-20T01:00:47.661Z,102916.42
2023-05-20T01:01:50.684Z,102913.73
2023-05-20T01:02:55.492Z,102913.70
2023-05-20T01:03:59.212Z,102912.05
2023-05-20T01:05:02.275Z,102909.06
2023-05-20T01:06:05.421Z,102906.40
2023-05-20T01:07:08.191Z,102908.63
2023-05-20T01:08:10.958Z,102907.73
2023-05-20T01:09:13.762Z,102909.52
2023-05-20T01:10:16.646Z,102904.95
2023-05-20T01:11:19.396Z,102907.40
2023-05-20T01:12:30.476Z,102904.27
2023-05-20T01:13:39.221Z,102903.23
2023-05-20T01:14:57.236Z,102903.85
2023-05-20T01:16:01.513Z,102900.81
2023-05-20T01:17:09.705Z,102901.44
2023-05-20T01:18:18.534Z,102904.02
2023-05-20T01:19:34.066Z,102903.40
2023-05-20T01:20:37.914Z,102905.73
2023-05-20T01:21:41.473Z,102904.67
2023-05-20T01:22:49.112Z,102904.40
2023-05-20T01:23:52.393Z,102905.74
2023-05-20T01:24:55.439Z,102908.11
2023-05-20T01:25:58.233Z,102904.85
2023-05-20T01:27:00.967Z,102901.20
2023-05-20T01:28:04.008Z,102901.90
2023-05-20T01:29:06.720Z,102899.63
2023-05-20T01:30:09.890Z,102899.12
2023-05-20T01:31:33.797Z,102897.00
2023-05-20T01:32:41.365Z,102897.73
2023-05-20T01:33:44.971Z,102895.73
2023-05-20T01:34:49.961Z,102891.01
2023-05-20T01:35:53.158Z,102890.41
2023-05-20T01:36:56.375Z,102889.39
2023-05-20T01:38:00.183Z,102888.56
2023-05-20T01:39:03.504Z,102886.63
2023-05-20T01:40:14.059Z,102888.89
2023-05-20T01:41:17.374Z,102889.12
2023-05-20T01:42:21.058Z,102892.94
2023-05-20T01:43:24.624Z,102893.31
2023-05-20T01:44:27.561Z,102893.50
2023-05-20T01:45:31.288Z,102890.42
2023-05-20T01:46:35.466Z,102892.48
2023-05-20T01:47:38.698Z,102893.33
2023-05-20T01:48:41.454Z,102888.45
2023-05-20T01:49:46.366Z,102885.73
2023-05-20T01:50:49.194Z,102884.99
2023-05-20T01:51:52.942Z,102885.55
2023-05-20T01:52:55.670Z,102884.67
2023-05-20T01:53:58.715Z,102884.77
2023-05-20T01:55:01.520Z,102882.41
2023-05-20T01:56:05.438Z,102880.30
2023-05-20T01:57:08.244Z,102881.45
2023-05-20T01:58:11.071Z,102880.77
2023-05-20T01:59:14.119Z,102880.06
2023-05-20T02:00:17.070Z,102880.98
2023-05-20T02:01:20.953Z,102876.81
2023-05-20T02:02:23.938Z,102876.02
2023-05-20T02:03:26.994Z,102880.36
2023-05-20T02:04:30.797Z,102879.11
2023-05-20T02:05:33.959Z,102877.71
2023-05-20T02:06:37.066Z,102876.98
2023-05-20T02:07:39.874Z,102872.27
2023-05-20T02:08:42.604Z,102873.52
2023-05-20T02:09:45.850Z,102877.81
2023-05-20T02:10:49.395Z,102877.44
2023-05-20T02:11:52.085Z,102874.52
2023-05-20T02:12:54.785Z,102871.50
2023-05-20T02:13:57.501Z,102873.79
2023-05-20T02:15:00.390Z,102876.23
2023-05-20T02:16:03.325Z,102876.17
2023-05-20T02:17:06.041Z,102877.76
2023-05-20T02:18:08.892Z,102873.45
2023-05-20T02:19:12.889Z,102877.35
2023-05-20T02:20:16.350Z,102876.43
2023-05-20T02:21:19.140Z,102878.09
2023-05-20T02:22:21.820Z,102875.79
2023-05-20T02:23:24.552Z,102878.52
2023-05-20T02:24:27.402Z,102877.64
2023-05-20T02:25:30.104Z,102876.80
2023-05-20T02:26:33.075Z,102878.32
2023-05-20T02:27:37.036Z,102878.39
2023-05-20T02:28:43.619Z,102874.09
2023-05-20T02:29:46.501Z,102874.63
2023-05-20T02:30:51.733Z,102871.38
2023-05-20T02:31:54.440Z,102871.95
2023-05-20T02:32:57.944Z,102871.23
2023-05-20T02:34:01.202Z,102872.56
2023-05-20T02:35:05.037Z,102871.30
2023-05-20T02:36:08.115Z,102872.00
2023-05-20T02:37:10.953Z,102864.86
2023-05-20T02:38:13.762Z,102869.66
2023-05-20T02:39:17.008Z,102871.07
2023-05-20T02:40:19.791Z,102871.66
2023-05-20T02:41:23.202Z,102871.73
2023-05-20T02:42:26.004Z,102872.04
2023-05-20T02:43:28.688Z,102870.66
2023-05-20T02:44:31.519Z,102871.30
2023-05-20T02:45:34.659Z,102869.56
2023-05-20T02:46:37.536Z,102875.57
2023-05-20T02:47:41.303Z,102873.05
2023-05-20T02:48:44.081Z,102872.09
2023-05-20T02:49:47.139Z,102874.31
2023-05-20T02:50:49.919Z,102870.52
2023-05-20T02:51:52.718Z,102868.86
2023-05-20T02:52:55.916Z,102873.77
2023-05-20T02:53:58.999Z,102872.86
2023-05-20T02:55:02.098Z,102871.60
2023-05-20T02:56:05.856Z,102868.02
2023-05-20T02:57:08.679Z,102868.05
2023-05-20T02:58:13.370Z,102866.44
2023-05-20T02:59:16.267Z,102869.54
2023-05-20T03:00:19.238Z,102869.31
2023-05-20T03:01:22.021Z,102867.04
2023-05-20T03:02:25.395Z,102867.23
2023-05-20T03:03:28.349Z,102866.92
2023-05-20T03:04:31.749Z,102864.17
2023-05-20T03:05:37.982Z,102864.52
2023-05-20T03:06:44.408Z,102862.12
2023-05-20T03:07:48.902Z,102863.67
2023-05-20T03:08:51.726Z,102865.92
2023-05-20T03:09:54.445Z,102863.20
2023-05-20T03:10:57.288Z,102862.81
2023-05-20T03:12:00.045Z,102862.70
2023-05-20T03:13:03.117Z,102861.30
2023-05-20T03:14:05.866Z,102862.56
2023-05-20T03:15:09.447Z,102860.48
2023-05-20T03:16:13.245Z,102864.70
2023-05-20T03:17:16.172Z,102861.76
2023-05-20T03:18:19.206Z,102862.94
2023-05-20T03:19:22.199Z,102861.79
2023-05-20T03:20:27.053Z,102863.73
2023-05-20T03:21:30.702Z,102865.35
2023-05-20T03:22:33.635Z,102864.46
2023-05-20T03:23:36.385Z,102863.63
2023-05-20T03:24:39.133Z,102864.19
2023-05-20T03:25:42.718Z,102864.33
2023-05-20T03:26:46.550Z,102864.73
2023-05-20T03:27:49.428Z,102864.27
2023-05-20T03:28:52.376Z,102864.77
2023-05-20T03:29:55.219Z,102864.52
2023-05-20T03:30:58.203Z,102865.05
2023-05-20T03:32:01.144Z,102864.08
2023-05-20T03:33:05.914Z,102864.15
2023-05-20T03:34:08.798Z,102865.96
2023-05-20T03:35:12.031Z,102865.56
2023-05-20T03:36:14.786Z,102864.83
2023-05-20T03:37:17.715Z,102867.16
2023-05-20T03:38:20.628Z,102867.98
2023-05-20T03:39:23.390Z,102870.02
2023-05-20T03:40:26.203Z,102868.20
2023-05-20T03:41:29.257Z,102868.24
2023-05-20T03:42:35.257Z,102868.27
2023-05-20T03:43:37.957Z,102867.03
2023-05-20T03:44:41.602Z,102871.90
2023-05-20T03:45:44.462Z,102875.27
2023-05-20T03:46:47.230Z,102873.02
2023-05-20T03:47:50.508Z,102871.20
2023-05-20T03:48:53.475Z,102871.95
2023-05-20T03:49:56.324Z,102868.23
2023-05-20T03:50:59.503Z,102869.16
2023-05-20T03:52:03.522Z,102868.70
2023-05-20T03:53:06.591Z,102868.88
2023-05-20T03:54:13.827Z,102867.04
2023-05-20T03:55:17.117Z,102866.77
2023-05-20T03:56:19.973Z,102866.20
2023-05-20T03:57:23.085Z,102870.41
2023-05-20T03:58:26.393Z,102868.52
2023-05-20T03:59:29.499Z,102867.97
2023-05-20T04:00:32.290Z,102864.71
2023-05-20T04:01:35.874Z,102864.98
2023-05-20T04:02:38.907Z,102865.83
2023-05-20T04:03:42.686Z,102865.43
2023-05-20T04:04:45.631Z,102863.02
2023-05-20T04:05:49.574Z,102864.02
2023-05-20T04:06:56.282Z,102866.22
2023-05-20T04:08:00.485Z,102862.18
2023-05-20T04:09:03.991Z,102862.58
2023-05-20T04:10:08.482Z,102865.48
2023-05-20T04:11:11.393Z,102864.48
2023-05-20T04:12:14.189Z,102867.47
2023-05-20T04:13:17.310Z,102864.55
2023-05-20T04:14:20.146Z,102862.34
2023-05-20T04:15:24.018Z,102866.64
2023-05-20T04:16:31.104Z,102865.98
2023-05-20T04:17:34.022Z,102865.60
2023-05-20T04:18:39.178Z,102868.88
2023-05-20T04:19:42.697Z,102868.58
2023-05-20T04:20:46.489Z,102868.81
2023-05-20T04:21:49.903Z,102867.60
2023-05-20T04:22:54.078Z,102865.52
2023-05-20T04:23:57.345Z,102867.38
2023-05-20T04:25:00.893Z,102869.46
2023-05-20T04:26:03.811Z,102870.30
2023-05-20T04:27:08.074Z,102867.84
2023-05-20T04:28:14.126Z,102865.55
2023-05-20T04:29:16.887Z,102868.22
2023-05-20T04:30:21.753Z,102869.83
2023-05-20T04:31:27.007Z,102868.42
2023-05-20T04:32:30.314Z,102869.94
2023-05-20T04:33:37.942Z,102866.48
2023-05-20T04:34:40.939Z,102868.84
2023-05-20T04:35:44.319Z,102865.98
2023-05-20T04:36:47.232Z,102861.71
2023-05-20T04:37:50.822Z,102858.75
2023-05-20T04:38:53.974Z,102862.49
2023-05-20T04:39:56.894Z,102865.42
2023-05-20T04:40:59.883Z,102865.05
2023-05-20T04:42:03.513Z,102866.27
2023-05-20T04:43:06.282Z,102863.30
2023-05-20T04:44:09.600Z,102864.95
2023-05-20T04:45:12.538Z,102865.66
2023-05-20T04:46:16.610Z,102870.20
2023-05-20T04:47:19.418Z,102868.48
2023-05-20T04:48:22.429Z,102867.01
2023-05-20T04:49:29.118Z,102865.87
2023-05-20T04:50:31.921Z,102865.84
2023-05-20T04:51:35.450Z,102864.25
2023-05-20T04:52:43.085Z,102862.36
2023-05-20T04:53:47.150Z,102865.33
2023-05-20T04:54:51.083Z,102863.88
2023-05-20T04:55:57.289Z,102865.91
2023-05-20T04:57:00.592Z,102869.10
2023-05-20T04:58:04.028Z,102867.44
2023-05-20T04:59:06.868Z,102868.23
2023-05-20T05:00:10.713Z,102869.20
2023-05-20T05:01:13.523Z,102868.95
2023-05-20T05:02:17.845Z,102868.89
2023-05-20T05:03:20.697Z,102870.88
2023-05-20T05:04:24.015Z,102869.59
2023-05-20T05:05:26.904Z,102870.05
2023-05-20T05:06:29.819Z,102869.09
2023-05-20T05:07:34.620Z,102868.28
2023-05-20T05:08:37.349Z,102872.38
2023-05-20T05:09:40.032Z,102874.02
2023-05-20T05:10:42.752Z,102872.88
2023-05-20T05:11:45.612Z,102874.75
2023-05-20T05:12:48.622Z,102874.82
2023-05-20T05:13:52.270Z,102871.18
2023-05-20T05:14:58.688Z,102875.98
2023-05-20T05:16:02.544Z,102876.25
2023-05-20T05:17:06.223Z,102874.61
2023-05-20T05:18:09.600Z,102875.86
2023-05-20T05:19:13.679Z,102878.28
2023-05-20T05:20:17.089Z,102878.72
2023-05-20T05:21:19.806Z,102874.64
2023-05-20T05:22:22.961Z,102875.72
2023-05-20T05:23:25.926Z,102878.24
2023-05-20T05:24:29.988Z,102877.48
2023-05-20T05:25:33.591Z,102879.40
2023-05-20T05:26:36.388Z,102876.00
2023-05-20T05:27:39.680Z,102878.54
2023-05-20T05:28:45.863Z,102880.30
2023-05-20T05:29:49.368Z,102876.59
2023-05-20T05:30:53.989Z,102878.95
2023-05-20T05:31:56.761Z,102879.70
2023-05-20T05:32:59.641Z,102879.00
2023-05-20T05:34:02.530Z,102880.23
2023-05-20T05:35:07.468Z,102883.09
2023-05-20T05:36:11.083Z,102880.73
2023-05-20T05:37:13.833Z,102881.04
2023-05-20T05:38:16.836Z,102879.16
2023-05-20T05:39:19.777Z,102877.80
2023-05-20T05:40:23.284Z,102880.40
2023-05-20T05:41:26.082Z,102878.20
2023-05-20T05:42:28.848Z,102875.20
2023-05-20T05:43:31.786Z,102874.34
2023-05-20T05:44:35.783Z,102876.09
2023-05-20T05:45:39.323Z,102876.59
2023-05-20T05:46:42.080Z,102877.91
2023-05-20T05:47:46.008Z,102878.78
2023-05-20T05:48:50.852Z,102880.90
2023-05-20T05:49:53.723Z,102879.02
2023-05-20T05:50:56.676Z,102881.48
2023-05-20T05:51:59.678Z,102883.48
2023-05-20T05:53:02.464Z,102881.98
2023-05-20T05:54:06.091Z,102880.15
2023-05-20T05:55:09.780Z,102880.31
2023-05-20T05:56:12.756Z,102881.34
2023-05-20T05:57:15.961Z,102875.71
2023-05-20T05:58:18.712Z,102873.32
2023-05-20T05:59:24.857Z,102873.80
2023-05-20T06:00:28.900Z,102874.67
2023-05-20T06:01:31.721Z,102873.73
2023-05-20T06:02:36.407Z,102876.92
2023-05-20T06:03:39.571Z,102876.11
2023-05-20T06:04:42.701Z,102876.27
2023-05-20T06:05:46.222Z,102880.17
2023-05-20T06:06:49.460Z,102876.14
2023-05-20T06:07:52.310Z,102878.10
2023-05-20T06:08:56.067Z,102878.53
2023-05-20T06:09:59.528Z,102877.43
2023-05-20T06:11:02.584Z,102880.08
2023-05-20T06:12:07.066Z,102879.19
2023-05-20T06:13:10.014Z,102878.32
2023-05-20T06:14:13.191Z,102879.66
2023-05-20T06:15:16.223Z,102877.05
2023-05-20T06:16:19.205Z,102872.61
2023-05-20T06:17:22.046Z,102875.15
2023-05-20T06:18:25.128Z,102874.91
2023-05-20T06:19:31.775Z,102873.33
2023-05-20T06:20:34.635Z,102871.11
2023-05-20T06:21:38.530Z,102872.55
2023-05-20T06:22:41.286Z,102874.10
2023-05-20T06:23:44.083Z,102874.23
2023-05-20T06:24:48.789Z,102875.30
2023-05-20T06:25:51.857Z,102874.81
2023-05-20T06:26:55.161Z,102872.94
2023-05-20T06:27:57.902Z,102870.58
2023-05-20T06:29:00.844Z,102869.36
2023-05-20T06:30:03.870Z,102871.15
2023-05-20T06:31:06.762Z,102874.42
2023-05-20T06:32:10.868Z,102872.87
2023-05-20T06:33:14.174Z,102873.56
2023-05-20T06:34:17.418Z,102875.39
2023-05-20T06:35:20.353Z,102875.45
2023-05-20T06:36:23.095Z,102874.00
2023-05-20T06:37:26.004Z,102872.81
2023-05-20T06:38:29.552Z,102875.95
2023-05-20T06:39:32.337Z,102879.70
2023-05-20T06:40:35.069Z,102878.77
2023-05-20T06:41:40.697Z,102878.70
2023-05-20T06:42:45.901Z,102880.35
2023-05-20T06:43:51.183Z,102883.25
2023-05-20T06:45:14.086Z,102882.59
2023-05-20T06:46:26.121Z,102884.48
2023-05-20T06:47:37.764Z,102880.83
2023-05-20T06:48:40.783Z,102880.42
2023-05-20T06:49:46.504Z,102877.38
2023-05-20T06:50:50.188Z,102877.19
2023-05-20T06:51:53.085Z,102876.55
2023-05-20T06:52:55.981Z,102873.36
2023-05-20T06:53:58.774Z,102875.34
2023-05-20T06:55:02.082Z,102872.56
2023-05-20T06:56:05.552Z,102870.77
2023-05-20T06:57:09.013Z,102868.81
2023-05-20T06:58:11.861Z,102868.69
2023-05-20T06:59:15.317Z,102868.69
2023-05-20T07:00:19.110Z,102863.88
2023-05-20T07:01:21.949Z,102865.53
2023-05-20T07:02:25.251Z,102860.85
2023-05-20T07:03:28.046Z,102862.86
2023-05-20T07:04:30.893Z,102864.92
2023-05-20T07:05:34.177Z,102864.45
2023-05-20T07:06:37.293Z,102864.84
2023-05-20T07:07:40.193Z,102861.84
2023-05-20T07:08:43.040Z,102861.73
2023-05-20T07:09:45.945Z,102860.73
2023-05-20T07:10:48.722Z,102858.50
2023-05-20T07:11:54.938Z,102859.60
2023-05-20T07:12:57.830Z,102861.63
2023-05-20T07:14:01.338Z,102858.98
2023-05-20T07:15:06.153Z,102856.83
2023-05-20T07:16:09.831Z,102857.05
2023-05-20T07:17:15.916Z,102858.58
2023-05-20T07:18:21.588Z,102857.23
2023-05-20T07:19:28.536Z,102855.15
2023-05-20T07:20:31.404Z,102856.10
2023-05-20T07:21:37.571Z,102857.98
2023-05-20T07:23:02.689Z,102855.73
2023-05-20T07:24:16.575Z,102855.75
2023-05-20T07:25:19.566Z,102855.71
2023-05-20T07:26:22.505Z,102854.04
2023-05-20T07:27:25.287Z,102855.11
2023-05-20T07:28:28.075Z,102847.29
2023-05-20T07:29:31.348Z,102849.45
2023-05-20T07:30:34.316Z,102849.35
2023-05-20T07:31:53.762Z,102850.89
2023-05-20T07:32:56.830Z,102850.58
2023-05-20T07:33:59.763Z,102848.92
2023-05-20T07:35:02.588Z,102850.73
2023-05-20T07:36:05.972Z,102849.42
2023-05-20T07:37:10.167Z,102845.70
2023-05-20T07:38:13.597Z,102845.59
2023-05-20T07:39:16.981Z,102842.89
2023-05-20T07:40:20.095Z,102842.39
2023-05-20T07:41:23.166Z,102838.02
2023-05-20T07:42:26.442Z,102841.41
2023-05-20T07:43:33.821Z,102842.16
2023-05-20T07:44:38.943Z,102842.31
2023-05-20T07:45:42.477Z,102841.02
2023-05-20T07:46:45.408Z,102839.67
2023-05-20T07:47:48.344Z,102843.33
2023-05-20T07:48:51.095Z,102843.19
2023-05-20T07:49:53.905Z,102843.46
2023-05-20T07:50:59.504Z,102844.85
2023-05-20T07:52:04.437Z,102843.56
2023-05-20T07:53:08.229Z,102847.20
2023-05-20T07:54:12.161Z,102845.63
2023-05-20T07:55:15.751Z,102845.18
2023-05-20T07:56:19.166Z,102845.61
2023-05-20T07:57:23.606Z,102845.95
2023-05-20T07:58:28.007Z,102846.59
2023-05-20T07:59:31.729Z,102846.20
2023-05-20T08:00:34.891Z,102844.60
2023-05-20T08:01:41.787Z,102842.90
2023-05-20T08:02:45.464Z,102842.83
2023-05-20T08:03:51.220Z,102842.31
2023-05-20T08:04:57.576Z,102844.77
2023-05-20T08:06:00.841Z,102847.11
2023-05-20T08:07:04.141Z,102842.05
2023-05-20T08:08:17.268Z,102842.05
2023-05-20T08:09:28.390Z,102842.30
2023-05-20T08:10:31.653Z,102842.98
2023-05-20T08:11:34.804Z,102841.15
2023-05-20T08:12:38.217Z,102843.80
2023-05-20T08:13:41.746Z,102843.20
2023-05-20T08:14:45.566Z,102844.86
2023-05-20T08:15:48.838Z,102843.86
2023-05-20T08:16:54.623Z,102843.46
2023-05-20T08:17:58.386Z,102845.00
2023-05-20T08:19:01.329Z,102842.88
2023-05-20T08:20:04.863Z,102845.73
2023-05-20T08:21:08.369Z,102844.30
2023-05-20T08:22:13.076Z,102842.47
2023-05-20T08:23:16.325Z,102842.09
2023-05-20T08:24:19.348Z,102840.12
2023-05-20T08:25:23.885Z,102838.94
2023-05-20T08:26:26.988Z,102834.83
2023-05-20T08:27:29.848Z,102832.55
2023-05-20T08:28:33.070Z,102833.35
2023-05-20T08:29:36.262Z,102833.09
2023-05-20T08:30:39.916Z,102833.33
2023-05-20T08:31:42.904Z,102834.24
2023-05-20T08:32:46.206Z,102838.22
2023-05-20T08:33:49.222Z,102834.92
2023-05-20T08:34:51.993Z,102840.79
2023-05-20T08:35:54.815Z,102840.70
2023-05-20T08:36:57.847Z,102839.30
2023-05-20T08:38:02.128Z,102838.00
2023-05-20T08:39:05.037Z,102836.06
2023-05-20T08:40:09.812Z,102835.52
2023-05-20T08:41:12.809Z,102836.74
2023-05-20T08:42:20.056Z,102833.23
2023-05-20T08:43:23.472Z,102830.64
2023-05-20T08:44:28.081Z,102830.02
2023-05-20T08:45:34.846Z,102827.85
2023-05-20T08:46:41.536Z,102828.86
2023-05-20T08:47:44.568Z,102826.79
2023-05-20T08:48:48.007Z,102827.32
2023-05-20T08:49:50.673Z,102826.92
2023-05-20T08:50:53.722Z,102824.71
2023-05-20T08:51:56.498Z,102828.21
2023-05-20T08:52:59.620Z,102826.82
2023-05-20T08:54:02.755Z,102826.61
2023-05-20T08:55:07.927Z,102826.79
2023-05-20T08:56:11.619Z,102826.98
2023-05-20T08:57:14.374Z,102827.55
2023-05-20T08:58:19.348Z,102829.95
2023-05-20T08:59:22.339Z,102832.56
2023-05-20T09:00:28.929Z,102828.45
2023-05-20T09:01:32.390Z,102830.20
2023-05-20T09:02:41.199Z,102832.35
2023-05-20T09:03:44.554Z,102834.14
2023-05-20T09:04:47.385Z,102833.48
2023-05-20T09:05:50.294Z,102834.77
2023-05-20T09:06:53.238Z,102836.95
2023-05-20T09:08:09.774Z,102835.36
2023-05-20T09:09:13.289Z,102835.20
2023-05-20T09:10:16.565Z,102839.27
2023-05-20T09:11:20.115Z,102836.92
2023-05-20T09:12:23.013Z,102837.85
2023-05-20T09:13:27.010Z,102835.27
2023-05-20T09:14:30.722Z,102833.20
2023-05-20T09:15:34.448Z,102831.49
2023-05-20T09:16:39.734Z,102829.08
2023-05-20T09:17:42.574Z,102829.34
2023-05-20T09:18:46.344Z,102830.00
2023-05-20T09:19:53.217Z,102826.66
2023-05-20T09:20:56.612Z,102825.66
2023-05-20T09:21:59.499Z,102826.15
2023-05-20T09:23:03.033Z,102825.90
2023-05-20T09:24:05.934Z,102825.35
2023-05-20T09:25:09.518Z,102824.13
2023-05-20T09:26:12.578Z,102824.16
2023-05-20T09:27:16.080Z,102823.88
2023-05-20T09:28:24.187Z,102825.70
2023-05-20T09:29:27.038Z,102824.46
2023-05-20T09:30:29.772Z,102827.33
2023-05-20T09:31:34.171Z,102822.55
2023-05-20T09:32:38.358Z,102825.52
2023-05-20T09:33:41.429Z,102824.65
2023-05-20T09:34:46.526Z,102825.42
2023-05-20T09:35:49.475Z,102826.85
2023-05-20T09:36:53.010Z,102825.10
2023-05-20T09:37:56.884Z,102826.23
2023-05-20T09:39:03.256Z,102826.08
2023-05-20T09:40:09.877Z,102823.35
2023-05-20T09:41:13.786Z,102823.70
2023-05-20T09:42:21.093Z,102826.78
2023-05-20T09:43:23.843Z,102827.55
2023-05-20T09:44:28.893Z,102827.18
2023-05-20T09:45:31.673Z,102826.05
2023-05-20T09:46:34.777Z,102826.11
2023-05-20T09:47:41.626Z,102827.37
2023-05-20T09:48:44.728Z,102827.56
2023-05-20T09:49:48.181Z,102823.06
2023-05-20T09:50:51.873Z,102826.45
2023-05-20T09:51:54.714Z,102819.71
2023-05-20T09:53:01.839Z,102822.15
2023-05-20T09:54:04.943Z,102827.39
2023-05-20T09:55:10.410Z,102825.81
2023-05-20T09:56:13.494Z,102827.52
2023-05-20T09:57:16.358Z,102827.88
2023-05-20T09:58:20.417Z,102827.89
2023-05-20T09:59:23.687Z,102826.55
2023-05-20T10:00:26.634Z,102833.15
2023-05-20T10:01:29.637Z,102829.34
2023-05-20T10:02:33.780Z,102828.95
2023-05-20T10:03:37.040Z,102828.45
2023-05-20T10:04:45.190Z,102828.20
2023-05-20T10:06:10.795Z,102827.80
2023-05-20T10:07:16.320Z,102827.89
2023-05-20T10:08:28.068Z,102827.27
2023-05-20T10:09:42.999Z,102826.11
2023-05-20T10:10:45.960Z,102825.38
2023-05-20T10:11:57.514Z,102825.20
2023-05-20T10:13:00.302Z,102827.42
2023-05-20T10:14:21.962Z,102830.66
2023-05-20T10:15:43.605Z,102831.83
2023-05-20T10:17:09.067Z,102829.73
2023-05-20T10:18:14.670Z,102830.52
2023-05-20T10:19:29.152Z,102835.58
2023-05-20T10:20:32.062Z,102838.40
2023-05-20T10:21:35.137Z,102840.66
2023-05-20T10:22:38.008Z,102839.29
2023-05-20T10:23:40.868Z,102836.48
2023-05-20T10:24:44.324Z,102834.05
2023-05-20T10:25:53.549Z,102833.30
2023-05-20T10:26:57.658Z,102834.29
2023-05-20T10:28:05.196Z,102834.64
2023-05-20T10:29:18.155Z,102829.38
2023-05-20T10:30:22.422Z,102831.61
2023-05-20T10:31:25.812Z,102828.39
2023-05-20T10:32:28.957Z,102828.54
2023-05-20T10:33:41.343Z,102827.53
2023-05-20T10:34:45.289Z,102827.83
2023-05-20T10:35:50.568Z,102826.20
2023-05-20T10:36:56.006Z,102825.05
2023-05-20T10:38:10.420Z,102824.70
2023-05-20T10:39:19.232Z,102823.91
2023-05-20T10:40:22.736Z,102824.97
2023-05-20T10:41:27.101Z,102819.98
2023-05-20T10:42:32.518Z,102823.22
2023-05-20T10:43:35.429Z,102817.83
2023-05-20T10:44:45.136Z,102820.54
2023-05-20T10:45:49.437Z,102823.02
2023-05-20T10:47:23.606Z,102815.63
2023-05-20T10:48:29.204Z,102820.86
2023-05-20T10:49:34.039Z,102816.55
2023-05-20T10:50:37.663Z,102816.87
2023-05-20T10:51:41.918Z,102813.73
2023-05-20T10:52:44.711Z,102811.84
2023-05-20T10:53:47.742Z,102808.02
2023-05-20T10:54:53.484Z,102812.16
2023-05-20T10:55:56.666Z,102809.55
2023-05-20T10:56:59.399Z,102807.59
2023-05-20T10:58:02.075Z,102806.63
2023-05-20T10:59:04.785Z,102804.42
2023-05-20T11:00:10.806Z,102803.36
2023-05-20T11:01:14.229Z,102803.27
2023-05-20T11:02:17.321Z,102804.42
2023-05-20T11:03:22.116Z,102802.16
2023-05-20T11:04:24.952Z,102799.03
2023-05-20T11:05:28.507Z,102795.92
2023-05-20T11:06:31.651Z,102795.32
2023-05-20T11:07:34.496Z,102792.98
2023-05-20T11:08:37.236Z,102791.02
2023-05-20T11:09:40.002Z,102792.44
2023-05-20T11:10:43.444Z,102792.67
2023-05-20T11:11:46.708Z,102790.77
2023-05-20T11:12:49.582Z,102790.52
2023-05-20T11:13:53.093Z,102784.64
2023-05-20T11:14:56.043Z,102782.28
2023-05-20T11:15:59.218Z,102782.23
2023-05-20T11:17:02.102Z,102780.81
2023-05-20T11:18:05.002Z,102783.14
2023-05-20T11:19:08.769Z,102785.11
2023-05-20T11:20:14.498Z,102782.25
2023-05-20T11:21:18.133Z,102777.98
2023-05-20T11:22:20.966Z,102777.53
2023-05-20T11:23:23.796Z,102778.45
2023-05-20T11:24:27.348Z,102776.98
2023-05-20T11:25:30.177Z,102775.96
2023-05-20T11:26:33.419Z,102778.80
2023-05-20T11:27:39.132Z,102776.80
2023-05-20T11:28:42.033Z,102777.67
2023-05-20T11:29:45.005Z,102776.03
2023-05-20T11:30:48.448Z,102773.82
2023-05-20T11:31:52.198Z,102773.95
2023-05-20T11:33:02.115Z,102772.13
2023-05-20T11:34:04.894Z,102776.79
2023-05-20T11:35:08.118Z,102771.15
2023-05-20T11:36:26.364Z,102767.58
2023-05-20T11:37:30.066Z,102765.44
2023-05-20T11:38:32.832Z,102762.23
2023-05-20T11:39:35.578Z,102760.95
2023-05-20T11:40:50.550Z,102762.64
2023-05-20T11:41:54.178Z,102759.65
2023-05-20T11:43:03.971Z,102759.77
2023-05-20T11:44:09.642Z,102758.73
2023-05-20T11:45:13.707Z,102762.16
2023-05-20T11:46:16.561Z,102759.61
2023-05-20T11:47:24.737Z,102756.77
2023-05-20T11:48:27.675Z,102751.39
2023-05-20T11:49:31.007Z,102753.04
2023-05-20T11:50:35.992Z,102755.27
2023-05-20T11:51:39.712Z,102750.88
2023-05-20T11:52:42.456Z,102748.23
2023-05-20T11:53:46.909Z,102746.56
2023-05-20T11:54:53.525Z,102749.55
2023-05-20T11:55:57.609Z,102752.98
2023-05-20T11:57:00.624Z,102750.57
2023-05-20T11:58:03.461Z,102753.14
2023-05-20T11:59:06.680Z,102757.77
2023-05-20T12:00:10.848Z,102754.75
2023-05-20T12:01:21.804Z,102754.67
2023-05-20T12:02:26.056Z,102758.59
2023-05-20T12:03:28.981Z,102758.89
2023-05-20T12:04:31.889Z,102755.28
2023-05-20T12:05:34.877Z,102754.75
2023-05-20T12:06:37.687Z,102752.89
2023-05-20T12:07:40.471Z,102755.27
2023-05-20T12:08:43.221Z,102753.70
2023-05-20T12:09:45.962Z,102757.04
2023-05-20T12:10:49.104Z,102753.73
2023-05-20T12:11:51.996Z,102760.39
2023-05-20T12:12:54.738Z,102755.94